sensor_id;sensor_type;location;lat;lon;timestamp;P1;durP1;ratioP1;P2;durP2;ratioP2
6679;SDS011;3376;42.664;23.346;2023-11-21T00:00:15;17.77;;;12.67;;
6679;SDS011;3376;42.664;23.346;2023-11-21T00:02:43;19.67;;;12.50;;
6679;SDS011;3376;42.664;23.346;2023-11-21T00:05:13;12.67;;;11.53;;
6679;SDS011;3376;42.664;23.346;2023-11-21T00:07:41;18.53;;;13.37;;
6679;SDS011;3376;42.664;23.346;2023-11-21T00:10:08;13.30;;;11.97;;
6679;SDS011;3376;42.664;23.346;2023-11-21T00:12:37;15.40;;;13.40;;
6679;SDS011;3376;42.664;23.346;2023-11-21T00:15:07;17.47;;;13.13;;
6679;SDS011;3376;42.664;23.346;2023-11-21T00:17:36;13.03;;;11.83;;
6679;SDS011;3376;42.664;23.346;2023-11-21T00:20:03;15.27;;;11.90;;
6679;SDS011;3376;42.664;23.346;2023-11-21T00:22:33;12.90;;;11.67;;
6679;SDS011;3376;42.664;23.346;2023-11-21T00:25:00;23.70;;;12.67;;
6679;SDS011;3376;42.664;23.346;2023-11-21T00:27:28;13.60;;;10.83;;
6679;SDS011;3376;42.664;23.346;2023-11-21T00:29:55;19.43;;;12.93;;
6679;SDS011;3376;42.664;23.346;2023-11-21T00:32:22;19.37;;;13.70;;
6679;SDS011;3376;42.664;23.346;2023-11-21T00:34:49;17.53;;;13.07;;
6679;SDS011;3376;42.664;23.346;2023-11-21T00:37:16;14.57;;;11.37;;
6679;SDS011;3376;42.664;23.346;2023-11-21T00:39:44;17.30;;;14.13;;
6679;SDS011;3376;42.664;23.346;2023-11-21T00:42:11;14.07;;;12.23;;
6679;SDS011;3376;42.664;23.346;2023-11-21T00:44:38;14.10;;;12.67;;
6679;SDS011;3376;42.664;23.346;2023-11-21T00:47:05;17.87;;;13.37;;
6679;SDS011;3376;42.664;23.346;2023-11-21T00:49:33;17.60;;;14.37;;
6679;SDS011;3376;42.664;23.346;2023-11-21T00:52:00;13.60;;;12.40;;
6679;SDS011;3376;42.664;23.346;2023-11-21T00:54:28;14.10;;;12.60;;
6679;SDS011;3376;42.664;23.346;2023-11-21T00:56:56;13.00;;;11.57;;
6679;SDS011;3376;42.664;23.346;2023-11-21T00:59:23;15.40;;;11.80;;
6679;SDS011;3376;42.664;23.346;2023-11-21T01:01:49;13.50;;;12.10;;
6679;SDS011;3376;42.664;23.346;2023-11-21T01:04:16;15.17;;;11.87;;
6679;SDS011;3376;42.664;23.346;2023-11-21T01:06:43;13.67;;;12.37;;
6679;SDS011;3376;42.664;23.346;2023-11-21T01:09:10;14.67;;;12.33;;
6679;SDS011;3376;42.664;23.346;2023-11-21T01:11:37;12.83;;;11.17;;
6679;SDS011;3376;42.664;23.346;2023-11-21T01:14:06;12.80;;;10.50;;
6679;SDS011;3376;42.664;23.346;2023-11-21T01:16:34;11.43;;;10.37;;
6679;SDS011;3376;42.664;23.346;2023-11-21T01:19:01;13.07;;;11.13;;
6679;SDS011;3376;42.664;23.346;2023-11-21T01:21:29;10.67;;;9.53;;
6679;SDS011;3376;42.664;23.346;2023-11-21T01:23:56;13.10;;;12.00;;
6679;SDS011;3376;42.664;23.346;2023-11-21T01:26:23;15.80;;;11.47;;
6679;SDS011;3376;42.664;23.346;2023-11-21T01:28:50;12.23;;;11.07;;
6679;SDS011;3376;42.664;23.346;2023-11-21T01:31:18;11.57;;;10.23;;
6679;SDS011;3376;42.664;23.346;2023-11-21T01:33:45;20.33;;;10.67;;
6679;SDS011;3376;42.664;23.346;2023-11-21T01:36:13;14.07;;;11.57;;
6679;SDS011;3376;42.664;23.346;2023-11-21T01:38:40;11.87;;;10.73;;
6679;SDS011;3376;42.664;23.346;2023-11-21T01:41:07;14.77;;;11.77;;
6679;SDS011;3376;42.664;23.346;2023-11-21T01:43:36;12.20;;;9.73;;
6679;SDS011;3376;42.664;23.346;2023-11-21T01:46:03;10.80;;;9.87;;
6679;SDS011;3376;42.664;23.346;2023-11-21T01:48:32;12.20;;;10.90;;
6679;SDS011;3376;42.664;23.346;2023-11-21T01:51:00;18.20;;;10.50;;
6679;SDS011;3376;42.664;23.346;2023-11-21T01:53:28;11.63;;;10.53;;
6679;SDS011;3376;42.664;23.346;2023-11-21T01:55:55;12.77;;;11.47;;
6679;SDS011;3376;42.664;23.346;2023-11-21T01:58:23;11.90;;;10.67;;
6679;SDS011;3376;42.664;23.346;2023-11-21T02:00:50;12.50;;;11.30;;
6679;SDS011;3376;42.664;23.346;2023-11-21T02:03:19;11.20;;;10.43;;
6679;SDS011;3376;42.664;23.346;2023-11-21T02:05:48;13.37;;;10.60;;
6679;SDS011;3376;42.664;23.346;2023-11-21T02:08:15;11.90;;;10.70;;
6679;SDS011;3376;42.664;23.346;2023-11-21T02:10:42;11.70;;;10.60;;
6679;SDS011;3376;42.664;23.346;2023-11-21T02:13:09;12.57;;;11.23;;
6679;SDS011;3376;42.664;23.346;2023-11-21T02:15:36;11.03;;;10.13;;
6679;SDS011;3376;42.664;23.346;2023-11-21T02:18:03;11.63;;;10.53;;
6679;SDS011;3376;42.664;23.346;2023-11-21T02:20:31;13.47;;;11.97;;
6679;SDS011;3376;42.664;23.346;2023-11-21T02:23:01;11.97;;;10.80;;
6679;SDS011;3376;42.664;23.346;2023-11-21T02:25:28;16.07;;;13.93;;
6679;SDS011;3376;42.664;23.346;2023-11-21T02:27:57;25.40;;;11.77;;
6679;SDS011;3376;42.664;23.346;2023-11-21T02:30:25;12.77;;;11.47;;
6679;SDS011;3376;42.664;23.346;2023-11-21T02:32:53;13.00;;;10.23;;
6679;SDS011;3376;42.664;23.346;2023-11-21T02:35:21;13.60;;;11.90;;
6679;SDS011;3376;42.664;23.346;2023-11-21T02:37:48;12.87;;;10.57;;
6679;SDS011;3376;42.664;23.346;2023-11-21T02:40:17;20.23;;;16.10;;
6679;SDS011;3376;42.664;23.346;2023-11-21T02:42:45;18.13;;;13.37;;
6679;SDS011;3376;42.664;23.346;2023-11-21T02:45:12;15.70;;;12.80;;
6679;SDS011;3376;42.664;23.346;2023-11-21T02:47:41;13.33;;;12.23;;
6679;SDS011;3376;42.664;23.346;2023-11-21T02:50:08;17.20;;;13.87;;
6679;SDS011;3376;42.664;23.346;2023-11-21T02:52:35;15.40;;;11.60;;
6679;SDS011;3376;42.664;23.346;2023-11-21T02:55:02;16.83;;;15.10;;
6679;SDS011;3376;42.664;23.346;2023-11-21T02:57:32;17.23;;;13.80;;
6679;SDS011;3376;42.664;23.346;2023-11-21T02:59:59;17.07;;;12.50;;
6679;SDS011;3376;42.664;23.346;2023-11-21T03:02:26;16.20;;;13.87;;
6679;SDS011;3376;42.664;23.346;2023-11-21T03:04:53;13.97;;;12.70;;
6679;SDS011;3376;42.664;23.346;2023-11-21T03:07:19;16.23;;;13.03;;
6679;SDS011;3376;42.664;23.346;2023-11-21T03:09:46;13.73;;;12.43;;
6679;SDS011;3376;42.664;23.346;2023-11-21T03:12:13;17.33;;;12.90;;
6679;SDS011;3376;42.664;23.346;2023-11-21T03:14:42;15.67;;;12.53;;
6679;SDS011;3376;42.664;23.346;2023-11-21T03:17:09;19.90;;;13.73;;
6679;SDS011;3376;42.664;23.346;2023-11-21T03:19:36;21.40;;;19.17;;
6679;SDS011;3376;42.664;23.346;2023-11-21T03:22:03;60.80;;;47.73;;
6679;SDS011;3376;42.664;23.346;2023-11-21T03:24:30;29.57;;;24.97;;
6679;SDS011;3376;42.664;23.346;2023-11-21T03:26:57;21.10;;;16.27;;
6679;SDS011;3376;42.664;23.346;2023-11-21T03:29:24;21.90;;;17.10;;
6679;SDS011;3376;42.664;23.346;2023-11-21T03:31:53;22.23;;;17.70;;
6679;SDS011;3376;42.664;23.346;2023-11-21T03:34:22;19.70;;;17.70;;
6679;SDS011;3376;42.664;23.346;2023-11-21T03:36:50;24.50;;;18.20;;
6679;SDS011;3376;42.664;23.346;2023-11-21T03:39:17;20.50;;;17.67;;
6679;SDS011;3376;42.664;23.346;2023-11-21T03:41:45;27.90;;;21.53;;
6679;SDS011;3376;42.664;23.346;2023-11-21T03:44:12;31.50;;;24.00;;
6679;SDS011;3376;42.664;23.346;2023-11-21T03:46:39;26.37;;;17.90;;
6679;SDS011;3376;42.664;23.346;2023-11-21T03:49:08;20.67;;;17.60;;
6679;SDS011;3376;42.664;23.346;2023-11-21T03:51:35;25.30;;;17.67;;
6679;SDS011;3376;42.664;23.346;2023-11-21T03:54:02;20.30;;;16.23;;
6679;SDS011;3376;42.664;23.346;2023-11-21T03:56:29;22.73;;;17.67;;
6679;SDS011;3376;42.664;23.346;2023-11-21T03:58:56;20.23;;;16.07;;
6679;SDS011;3376;42.664;23.346;2023-11-21T04:01:23;25.73;;;16.20;;
6679;SDS011;3376;42.664;23.346;2023-11-21T04:03:51;21.90;;;17.10;;
6679;SDS011;3376;42.664;23.346;2023-11-21T04:06:19;16.43;;;14.80;;
6679;SDS011;3376;42.664;23.346;2023-11-21T04:08:46;22.50;;;15.73;;
6679;SDS011;3376;42.664;23.346;2023-11-21T04:11:13;28.53;;;19.40;;
6679;SDS011;3376;42.664;23.346;2023-11-21T04:13:40;25.77;;;18.10;;
6679;SDS011;3376;42.664;23.346;2023-11-21T04:16:08;30.23;;;21.23;;
6679;SDS011;3376;42.664;23.346;2023-11-21T04:18:35;24.43;;;19.37;;
6679;SDS011;3376;42.664;23.346;2023-11-21T04:21:03;25.83;;;16.77;;
6679;SDS011;3376;42.664;23.346;2023-11-21T04:23:31;23.37;;;16.23;;
6679;SDS011;3376;42.664;23.346;2023-11-21T04:25:58;21.90;;;15.33;;
6679;SDS011;3376;42.664;23.346;2023-11-21T04:28:27;17.67;;;14.03;;
6679;SDS011;3376;42.664;23.346;2023-11-21T04:30:54;19.53;;;14.20;;
6679;SDS011;3376;42.664;23.346;2023-11-21T04:33:21;15.87;;;14.23;;
6679;SDS011;3376;42.664;23.346;2023-11-21T04:35:47;16.07;;;11.67;;
6679;SDS011;3376;42.664;23.346;2023-11-21T04:38:14;14.50;;;12.77;;
6679;SDS011;3376;42.664;23.346;2023-11-21T04:40:42;22.20;;;19.03;;
6679;SDS011;3376;42.664;23.346;2023-11-21T04:43:08;13.80;;;12.60;;
6679;SDS011;3376;42.664;23.346;2023-11-21T04:45:35;20.80;;;15.13;;
6679;SDS011;3376;42.664;23.346;2023-11-21T04:48:02;22.27;;;17.33;;
6679;SDS011;3376;42.664;23.346;2023-11-21T04:50:30;16.93;;;14.80;;
6679;SDS011;3376;42.664;23.346;2023-11-21T04:52:57;14.10;;;12.63;;
6679;SDS011;3376;42.664;23.346;2023-11-21T04:55:24;16.53;;;13.73;;
6679;SDS011;3376;42.664;23.346;2023-11-21T04:57:54;24.53;;;19.83;;
6679;SDS011;3376;42.664;23.346;2023-11-21T05:00:21;26.20;;;17.87;;
6679;SDS011;3376;42.664;23.346;2023-11-21T05:02:48;15.20;;;12.83;;
6679;SDS011;3376;42.664;23.346;2023-11-21T05:05:15;15.73;;;13.20;;
6679;SDS011;3376;42.664;23.346;2023-11-21T05:07:42;21.20;;;15.87;;
6679;SDS011;3376;42.664;23.346;2023-11-21T05:10:09;22.63;;;17.87;;
6679;SDS011;3376;42.664;23.346;2023-11-21T05:12:37;19.67;;;15.77;;
6679;SDS011;3376;42.664;23.346;2023-11-21T05:15:06;22.50;;;17.20;;
6679;SDS011;3376;42.664;23.346;2023-11-21T05:17:36;30.37;;;19.47;;
6679;SDS011;3376;42.664;23.346;2023-11-21T05:20:04;19.93;;;14.60;;
6679;SDS011;3376;42.664;23.346;2023-11-21T05:22:33;21.83;;;17.77;;
6679;SDS011;3376;42.664;23.346;2023-11-21T05:25:00;25.63;;;17.30;;
6679;SDS011;3376;42.664;23.346;2023-11-21T05:27:28;21.03;;;17.50;;
6679;SDS011;3376;42.664;23.346;2023-11-21T05:29:56;21.47;;;17.20;;
6679;SDS011;3376;42.664;23.346;2023-11-21T05:32:24;21.73;;;18.63;;
6679;SDS011;3376;42.664;23.346;2023-11-21T05:34:52;21.70;;;18.60;;
6679;SDS011;3376;42.664;23.346;2023-11-21T05:37:19;25.10;;;18.97;;
6679;SDS011;3376;42.664;23.346;2023-11-21T05:39:45;22.60;;;16.37;;
6679;SDS011;3376;42.664;23.346;2023-11-21T05:42:12;25.53;;;17.23;;
6679;SDS011;3376;42.664;23.346;2023-11-21T05:44:41;19.83;;;15.57;;
6679;SDS011;3376;42.664;23.346;2023-11-21T05:47:09;20.50;;;15.83;;
6679;SDS011;3376;42.664;23.346;2023-11-21T05:49:37;24.17;;;18.37;;
6679;SDS011;3376;42.664;23.346;2023-11-21T05:52:04;19.20;;;15.43;;
6679;SDS011;3376;42.664;23.346;2023-11-21T05:54:31;24.27;;;17.60;;
6679;SDS011;3376;42.664;23.346;2023-11-21T05:56:59;27.37;;;18.27;;
6679;SDS011;3376;42.664;23.346;2023-11-21T05:59:26;26.87;;;16.40;;
6679;SDS011;3376;42.664;23.346;2023-11-21T06:01:53;19.37;;;15.17;;
6679;SDS011;3376;42.664;23.346;2023-11-21T06:04:20;24.73;;;16.43;;
6679;SDS011;3376;42.664;23.346;2023-11-21T06:06:51;22.43;;;15.87;;
6679;SDS011;3376;42.664;23.346;2023-11-21T06:09:19;22.53;;;17.67;;
6679;SDS011;3376;42.664;23.346;2023-11-21T06:11:46;22.87;;;17.23;;
6679;SDS011;3376;42.664;23.346;2023-11-21T06:14:13;22.83;;;18.43;;
6679;SDS011;3376;42.664;23.346;2023-11-21T06:16:43;20.53;;;16.87;;
6679;SDS011;3376;42.664;23.346;2023-11-21T06:19:10;26.20;;;16.37;;
6679;SDS011;3376;42.664;23.346;2023-11-21T06:21:37;19.47;;;16.80;;
6679;SDS011;3376;42.664;23.346;2023-11-21T06:24:06;25.70;;;18.73;;
6679;SDS011;3376;42.664;23.346;2023-11-21T06:26:33;25.87;;;16.30;;
6679;SDS011;3376;42.664;23.346;2023-11-21T06:28:59;20.27;;;15.43;;
6679;SDS011;3376;42.664;23.346;2023-11-21T06:31:29;18.97;;;15.73;;
6679;SDS011;3376;42.664;23.346;2023-11-21T06:33:57;26.73;;;16.33;;
6679;SDS011;3376;42.664;23.346;2023-11-21T06:36:25;28.40;;;16.87;;
6679;SDS011;3376;42.664;23.346;2023-11-21T06:38:52;24.33;;;15.67;;
6679;SDS011;3376;42.664;23.346;2023-11-21T06:41:21;19.77;;;14.77;;
6679;SDS011;3376;42.664;23.346;2023-11-21T06:43:48;16.57;;;14.40;;
6679;SDS011;3376;42.664;23.346;2023-11-21T06:46:15;21.53;;;14.70;;
6679;SDS011;3376;42.664;23.346;2023-11-21T06:48:42;20.10;;;15.00;;
6679;SDS011;3376;42.664;23.346;2023-11-21T06:51:09;18.87;;;15.30;;
6679;SDS011;3376;42.664;23.346;2023-11-21T06:53:36;19.37;;;14.63;;
6679;SDS011;3376;42.664;23.346;2023-11-21T06:56:03;19.87;;;13.70;;
6679;SDS011;3376;42.664;23.346;2023-11-21T06:58:33;21.23;;;14.37;;
6679;SDS011;3376;42.664;23.346;2023-11-21T07:01:00;19.50;;;15.23;;
6679;SDS011;3376;42.664;23.346;2023-11-21T07:03:27;17.13;;;14.70;;
6679;SDS011;3376;42.664;23.346;2023-11-21T07:05:54;21.03;;;14.90;;
6679;SDS011;3376;42.664;23.346;2023-11-21T07:08:21;16.37;;;13.87;;
6679;SDS011;3376;42.664;23.346;2023-11-21T07:10:47;18.93;;;14.57;;
6679;SDS011;3376;42.664;23.346;2023-11-21T07:13:14;20.07;;;14.50;;
6679;SDS011;3376;42.664;23.346;2023-11-21T07:15:42;18.87;;;14.57;;
6679;SDS011;3376;42.664;23.346;2023-11-21T07:18:09;20.13;;;14.80;;
6679;SDS011;3376;42.664;23.346;2023-11-21T07:20:37;15.87;;;13.70;;
6679;SDS011;3376;42.664;23.346;2023-11-21T07:23:03;17.00;;;14.00;;
6679;SDS011;3376;42.664;23.346;2023-11-21T07:25:31;14.30;;;12.93;;
6679;SDS011;3376;42.664;23.346;2023-11-21T07:27:58;11.03;;;8.90;;
6679;SDS011;3376;42.664;23.346;2023-11-21T07:30:25;13.50;;;10.43;;
6679;SDS011;3376;42.664;23.346;2023-11-21T07:32:53;11.00;;;9.80;;
6679;SDS011;3376;42.664;23.346;2023-11-21T07:35:20;10.23;;;9.43;;
6679;SDS011;3376;42.664;23.346;2023-11-21T07:37:47;14.67;;;9.90;;
6679;SDS011;3376;42.664;23.346;2023-11-21T07:40:15;10.33;;;9.33;;
6679;SDS011;3376;42.664;23.346;2023-11-21T07:42:42;10.00;;;9.20;;
6679;SDS011;3376;42.664;23.346;2023-11-21T07:45:09;12.10;;;9.40;;
6679;SDS011;3376;42.664;23.346;2023-11-21T07:47:36;8.87;;;8.20;;
6679;SDS011;3376;42.664;23.346;2023-11-21T07:50:06;9.23;;;8.37;;
6679;SDS011;3376;42.664;23.346;2023-11-21T07:52:34;11.20;;;9.73;;
6679;SDS011;3376;42.664;23.346;2023-11-21T07:55:00;14.07;;;10.00;;
6679;SDS011;3376;42.664;23.346;2023-11-21T07:57:27;11.03;;;9.87;;
6679;SDS011;3376;42.664;23.346;2023-11-21T07:59:54;12.27;;;9.63;;
6679;SDS011;3376;42.664;23.346;2023-11-21T08:02:21;10.30;;;9.37;;
6679;SDS011;3376;42.664;23.346;2023-11-21T08:04:48;9.33;;;8.53;;
6679;SDS011;3376;42.664;23.346;2023-11-21T08:07:17;10.20;;;9.30;;
6679;SDS011;3376;42.664;23.346;2023-11-21T08:09:44;13.13;;;8.63;;
6679;SDS011;3376;42.664;23.346;2023-11-21T08:12:11;21.47;;;9.23;;
6679;SDS011;3376;42.664;23.346;2023-11-21T08:14:40;11.80;;;9.60;;
6679;SDS011;3376;42.664;23.346;2023-11-21T08:17:06;15.87;;;14.33;;
6679;SDS011;3376;42.664;23.346;2023-11-21T08:19:35;13.80;;;12.30;;
6679;SDS011;3376;42.664;23.346;2023-11-21T08:22:02;11.80;;;9.73;;
6679;SDS011;3376;42.664;23.346;2023-11-21T08:24:34;13.47;;;10.03;;
6679;SDS011;3376;42.664;23.346;2023-11-21T08:27:00;11.57;;;10.63;;
6679;SDS011;3376;42.664;23.346;2023-11-21T08:29:29;13.43;;;11.40;;
6679;SDS011;3376;42.664;23.346;2023-11-21T08:31:56;20.87;;;11.10;;
6679;SDS011;3376;42.664;23.346;2023-11-21T08:34:25;11.27;;;9.90;;
6679;SDS011;3376;42.664;23.346;2023-11-21T08:36:51;12.40;;;9.83;;
6679;SDS011;3376;42.664;23.346;2023-11-21T08:39:18;16.33;;;11.47;;
6679;SDS011;3376;42.664;23.346;2023-11-21T08:41:46;12.07;;;11.00;;
6679;SDS011;3376;42.664;23.346;2023-11-21T08:44:13;16.77;;;11.83;;
6679;SDS011;3376;42.664;23.346;2023-11-21T08:46:41;19.03;;;14.83;;
6679;SDS011;3376;42.664;23.346;2023-11-21T08:49:10;20.90;;;13.33;;
6679;SDS011;3376;42.664;23.346;2023-11-21T08:51:37;14.10;;;12.70;;
6679;SDS011;3376;42.664;23.346;2023-11-21T08:54:04;16.27;;;12.20;;
6679;SDS011;3376;42.664;23.346;2023-11-21T08:56:33;15.27;;;12.20;;
6679;SDS011;3376;42.664;23.346;2023-11-21T08:59:01;11.50;;;10.27;;
6679;SDS011;3376;42.664;23.346;2023-11-21T09:01:28;11.83;;;10.63;;
6679;SDS011;3376;42.664;23.346;2023-11-21T09:03:56;14.60;;;11.30;;
6679;SDS011;3376;42.664;23.346;2023-11-21T09:06:23;12.27;;;11.20;;
6679;SDS011;3376;42.664;23.346;2023-11-21T09:08:50;11.13;;;10.27;;
6679;SDS011;3376;42.664;23.346;2023-11-21T09:11:17;12.07;;;10.80;;
6679;SDS011;3376;42.664;23.346;2023-11-21T09:13:44;12.93;;;11.63;;
6679;SDS011;3376;42.664;23.346;2023-11-21T09:16:13;19.50;;;16.73;;
6679;SDS011;3376;42.664;23.346;2023-11-21T09:18:40;35.83;;;21.23;;
6679;SDS011;3376;42.664;23.346;2023-11-21T09:21:07;31.27;;;24.13;;
6679;SDS011;3376;42.664;23.346;2023-11-21T09:23:34;32.30;;;22.40;;
6679;SDS011;3376;42.664;23.346;2023-11-21T09:26:01;37.10;;;22.97;;
6679;SDS011;3376;42.664;23.346;2023-11-21T09:28:28;32.77;;;23.13;;
6679;SDS011;3376;42.664;23.346;2023-11-21T09:30:55;32.87;;;22.43;;
6679;SDS011;3376;42.664;23.346;2023-11-21T09:33:23;27.13;;;21.07;;
6679;SDS011;3376;42.664;23.346;2023-11-21T09:35:50;29.40;;;20.27;;
6679;SDS011;3376;42.664;23.346;2023-11-21T09:38:17;27.77;;;20.70;;
6679;SDS011;3376;42.664;23.346;2023-11-21T09:40:44;31.00;;;22.87;;
6679;SDS011;3376;42.664;23.346;2023-11-21T09:43:14;30.17;;;22.80;;
6679;SDS011;3376;42.664;23.346;2023-11-21T09:45:44;31.43;;;22.07;;
6679;SDS011;3376;42.664;23.346;2023-11-21T09:48:13;31.00;;;21.10;;
6679;SDS011;3376;42.664;23.346;2023-11-21T09:50:42;23.43;;;16.87;;
6679;SDS011;3376;42.664;23.346;2023-11-21T09:53:12;23.77;;;17.80;;
6679;SDS011;3376;42.664;23.346;2023-11-21T09:55:44;26.33;;;17.50;;
6679;SDS011;3376;42.664;23.346;2023-11-21T09:58:12;20.90;;;17.83;;
6679;SDS011;3376;42.664;23.346;2023-11-21T10:00:40;27.40;;;17.70;;
6679;SDS011;3376;42.664;23.346;2023-11-21T10:03:08;20.17;;;16.40;;
6679;SDS011;3376;42.664;23.346;2023-11-21T10:05:35;17.37;;;15.60;;
6679;SDS011;3376;42.664;23.346;2023-11-21T10:08:04;21.07;;;15.50;;
6679;SDS011;3376;42.664;23.346;2023-11-21T10:10:35;27.13;;;16.23;;
6679;SDS011;3376;42.664;23.346;2023-11-21T10:13:04;18.40;;;15.60;;
6679;SDS011;3376;42.664;23.346;2023-11-21T10:15:33;16.20;;;14.37;;
6679;SDS011;3376;42.664;23.346;2023-11-21T10:18:02;17.17;;;14.40;;
6679;SDS011;3376;42.664;23.346;2023-11-21T10:20:28;19.97;;;15.57;;
6679;SDS011;3376;42.664;23.346;2023-11-21T10:22:56;21.23;;;15.47;;
6679;SDS011;3376;42.664;23.346;2023-11-21T10:25:24;17.63;;;15.87;;
6679;SDS011;3376;42.664;23.346;2023-11-21T10:27:56;17.60;;;14.87;;
6679;SDS011;3376;42.664;23.346;2023-11-21T10:30:27;16.23;;;14.63;;
6679;SDS011;3376;42.664;23.346;2023-11-21T10:32:59;17.50;;;14.70;;
6679;SDS011;3376;42.664;23.346;2023-11-21T10:35:38;15.47;;;13.63;;
6679;SDS011;3376;42.664;23.346;2023-11-21T10:38:06;13.10;;;12.07;;
6679;SDS011;3376;42.664;23.346;2023-11-21T10:40:38;10.90;;;9.90;;
6679;SDS011;3376;42.664;23.346;2023-11-21T10:43:07;15.20;;;12.63;;
6679;SDS011;3376;42.664;23.346;2023-11-21T10:45:35;11.90;;;10.47;;
6679;SDS011;3376;42.664;23.346;2023-11-21T10:48:04;12.20;;;10.90;;
6679;SDS011;3376;42.664;23.346;2023-11-21T10:50:33;16.23;;;11.87;;
6679;SDS011;3376;42.664;23.346;2023-11-21T10:53:01;12.97;;;11.77;;
6679;SDS011;3376;42.664;23.346;2023-11-21T10:55:28;12.87;;;11.77;;
6679;SDS011;3376;42.664;23.346;2023-11-21T10:57:59;14.93;;;13.57;;
6679;SDS011;3376;42.664;23.346;2023-11-21T11:00:28;16.87;;;13.37;;
6679;SDS011;3376;42.664;23.346;2023-11-21T11:02:56;16.70;;;15.20;;
6679;SDS011;3376;42.664;23.346;2023-11-21T11:05:24;16.23;;;13.97;;
6679;SDS011;3376;42.664;23.346;2023-11-21T11:07:53;16.80;;;13.43;;
6679;SDS011;3376;42.664;23.346;2023-11-21T11:10:26;13.53;;;12.30;;
6679;SDS011;3376;42.664;23.346;2023-11-21T11:12:54;14.67;;;13.33;;
6679;SDS011;3376;42.664;23.346;2023-11-21T11:15:23;13.77;;;12.47;;
6679;SDS011;3376;42.664;23.346;2023-11-21T11:17:52;17.47;;;12.83;;
6679;SDS011;3376;42.664;23.346;2023-11-21T11:20:22;19.30;;;12.70;;
6679;SDS011;3376;42.664;23.346;2023-11-21T11:22:53;15.47;;;12.80;;
6679;SDS011;3376;42.664;23.346;2023-11-21T11:25:35;14.67;;;13.17;;
6679;SDS011;3376;42.664;23.346;2023-11-21T11:28:14;15.83;;;11.33;;
6679;SDS011;3376;42.664;23.346;2023-11-21T11:30:50;16.63;;;12.40;;
6679;SDS011;3376;42.664;23.346;2023-11-21T11:33:30;13.47;;;11.50;;
6679;SDS011;3376;42.664;23.346;2023-11-21T11:36:06;11.83;;;10.60;;
6679;SDS011;3376;42.664;23.346;2023-11-21T11:38:44;14.00;;;12.23;;
6679;SDS011;3376;42.664;23.346;2023-11-21T11:41:15;14.60;;;12.23;;
6679;SDS011;3376;42.664;23.346;2023-11-21T11:43:51;13.27;;;11.03;;
6679;SDS011;3376;42.664;23.346;2023-11-21T11:46:20;11.67;;;10.57;;
6679;SDS011;3376;42.664;23.346;2023-11-21T11:48:47;15.23;;;9.87;;
6679;SDS011;3376;42.664;23.346;2023-11-21T11:51:28;12.23;;;10.93;;
6679;SDS011;3376;42.664;23.346;2023-11-21T11:53:56;10.43;;;9.43;;
6679;SDS011;3376;42.664;23.346;2023-11-21T11:56:26;17.93;;;11.00;;
6679;SDS011;3376;42.664;23.346;2023-11-21T11:58:55;11.50;;;10.33;;
6679;SDS011;3376;42.664;23.346;2023-11-21T12:01:25;12.67;;;10.63;;
6679;SDS011;3376;42.664;23.346;2023-11-21T12:06:56;14.57;;;11.77;;
6679;SDS011;3376;42.664;23.346;2023-11-21T12:09:28;13.20;;;11.50;;
6679;SDS011;3376;42.664;23.346;2023-11-21T12:11:56;13.60;;;12.30;;
6679;SDS011;3376;42.664;23.346;2023-11-21T12:14:24;15.33;;;13.00;;
6679;SDS011;3376;42.664;23.346;2023-11-21T12:16:53;17.00;;;15.10;;
6679;SDS011;3376;42.664;23.346;2023-11-21T12:19:20;16.00;;;14.57;;
6679;SDS011;3376;42.664;23.346;2023-11-21T12:21:48;25.90;;;16.10;;
6679;SDS011;3376;42.664;23.346;2023-11-21T12:24:15;21.57;;;16.27;;
6679;SDS011;3376;42.664;23.346;2023-11-21T12:26:43;25.40;;;17.10;;
6679;SDS011;3376;42.664;23.346;2023-11-21T12:29:10;23.20;;;17.63;;
6679;SDS011;3376;42.664;23.346;2023-11-21T12:31:37;18.33;;;16.37;;
6679;SDS011;3376;42.664;23.346;2023-11-21T12:34:06;20.37;;;16.90;;
6679;SDS011;3376;42.664;23.346;2023-11-21T12:36:36;31.33;;;18.67;;
6679;SDS011;3376;42.664;23.346;2023-11-21T12:39:04;25.17;;;18.70;;
6679;SDS011;3376;42.664;23.346;2023-11-21T12:41:34;26.30;;;19.37;;
6679;SDS011;3376;42.664;23.346;2023-11-21T12:44:01;27.70;;;19.87;;
6679;SDS011;3376;42.664;23.346;2023-11-21T12:46:28;29.30;;;19.73;;
6679;SDS011;3376;42.664;23.346;2023-11-21T12:48:57;24.23;;;19.30;;
6679;SDS011;3376;42.664;23.346;2023-11-21T12:51:25;27.60;;;21.37;;
6679;SDS011;3376;42.664;23.346;2023-11-21T12:53:52;29.40;;;21.37;;
6679;SDS011;3376;42.664;23.346;2023-11-21T12:56:21;30.27;;;21.40;;
6679;SDS011;3376;42.664;23.346;2023-11-21T12:58:53;26.80;;;21.03;;
6679;SDS011;3376;42.664;23.346;2023-11-21T13:01:25;26.37;;;22.00;;
6679;SDS011;3376;42.664;23.346;2023-11-21T13:03:55;26.80;;;22.17;;
6679;SDS011;3376;42.664;23.346;2023-11-21T13:06:26;36.70;;;22.60;;
6679;SDS011;3376;42.664;23.346;2023-11-21T13:08:55;34.07;;;22.37;;
6679;SDS011;3376;42.664;23.346;2023-11-21T13:11:22;31.50;;;23.57;;
6679;SDS011;3376;42.664;23.346;2023-11-21T13:13:51;22.93;;;20.20;;
6679;SDS011;3376;42.664;23.346;2023-11-21T13:16:19;30.13;;;23.30;;
6679;SDS011;3376;42.664;23.346;2023-11-21T13:18:46;32.07;;;21.23;;
6679;SDS011;3376;42.664;23.346;2023-11-21T13:21:14;26.40;;;22.50;;
6679;SDS011;3376;42.664;23.346;2023-11-21T13:23:43;28.47;;;22.90;;
6679;SDS011;3376;42.664;23.346;2023-11-21T13:26:11;37.80;;;22.10;;
6679;SDS011;3376;42.664;23.346;2023-11-21T13:28:39;29.73;;;21.93;;
6679;SDS011;3376;42.664;23.346;2023-11-21T13:31:11;31.97;;;23.73;;
6679;SDS011;3376;42.664;23.346;2023-11-21T13:33:46;34.30;;;24.77;;
6679;SDS011;3376;42.664;23.346;2023-11-21T13:36:17;33.40;;;23.40;;
6679;SDS011;3376;42.664;23.346;2023-11-21T13:38:49;32.60;;;22.07;;
6679;SDS011;3376;42.664;23.346;2023-11-21T13:41:17;34.27;;;22.07;;
6679;SDS011;3376;42.664;23.346;2023-11-21T13:43:44;26.30;;;21.30;;
6679;SDS011;3376;42.664;23.346;2023-11-21T13:46:17;25.90;;;22.33;;
6679;SDS011;3376;42.664;23.346;2023-11-21T13:48:47;30.93;;;23.13;;
6679;SDS011;3376;42.664;23.346;2023-11-21T13:51:16;36.50;;;23.50;;
6679;SDS011;3376;42.664;23.346;2023-11-21T13:53:43;31.50;;;23.00;;
6679;SDS011;3376;42.664;23.346;2023-11-21T13:56:14;35.23;;;24.33;;
6679;SDS011;3376;42.664;23.346;2023-11-21T13:58:46;34.50;;;24.63;;
6679;SDS011;3376;42.664;23.346;2023-11-21T14:01:16;38.77;;;26.77;;
6679;SDS011;3376;42.664;23.346;2023-11-21T14:04:06;31.20;;;22.03;;
6679;SDS011;3376;42.664;23.346;2023-11-21T14:06:44;28.53;;;22.40;;
6679;SDS011;3376;42.664;23.346;2023-11-21T14:09:13;32.17;;;22.97;;
6679;SDS011;3376;42.664;23.346;2023-11-21T14:11:49;30.40;;;22.13;;
6679;SDS011;3376;42.664;23.346;2023-11-21T14:14:18;29.27;;;22.27;;
6679;SDS011;3376;42.664;23.346;2023-11-21T14:16:45;36.13;;;23.93;;
6679;SDS011;3376;42.664;23.346;2023-11-21T14:19:12;31.20;;;23.17;;
6679;SDS011;3376;42.664;23.346;2023-11-21T14:21:42;34.40;;;23.30;;
6679;SDS011;3376;42.664;23.346;2023-11-21T14:24:09;24.13;;;21.03;;
6679;SDS011;3376;42.664;23.346;2023-11-21T14:26:38;30.07;;;22.90;;
6679;SDS011;3376;42.664;23.346;2023-11-21T14:29:07;34.43;;;22.30;;
6679;SDS011;3376;42.664;23.346;2023-11-21T14:31:37;38.73;;;23.70;;
6679;SDS011;3376;42.664;23.346;2023-11-21T14:34:04;28.80;;;21.67;;
6679;SDS011;3376;42.664;23.346;2023-11-21T14:36:32;34.23;;;23.00;;
6679;SDS011;3376;42.664;23.346;2023-11-21T14:38:58;31.27;;;22.47;;
6679;SDS011;3376;42.664;23.346;2023-11-21T14:41:25;28.50;;;21.10;;
6679;SDS011;3376;42.664;23.346;2023-11-21T14:43:53;37.43;;;24.60;;